createdAt,value
2018-06-25T00:01:55.304Z,53.80
2018-06-25T00:04:24.545Z,53.80
2018-06-25T00:06:53.776Z,53.80
2018-06-25T00:11:52.252Z,53.60
2018-06-25T00:14:21.786Z,53.60
2018-06-25T00:16:51.050Z,53.50
2018-06-25T00:19:20.305Z,53.90
2018-06-25T00:21:49.671Z,53.60
2018-06-25T00:24:18.906Z,53.70
2018-06-25T00:26:48.242Z,53.60
2018-06-25T00:29:17.590Z,53.80
2018-06-25T00:31:46.834Z,54.40
2018-06-25T00:34:16.157Z,54.10
2018-06-25T00:36:45.437Z,54.30
2018-06-25T00:39:14.917Z,54.40
2018-06-25T00:41:44.150Z,54.60
2018-06-25T00:44:13.437Z,54.80
2018-06-25T00:46:42.910Z,55.30
2018-06-25T00:49:12.121Z,55.40
2018-06-25T00:51:41.522Z,55.40
2018-06-25T00:54:10.838Z,55.20
2018-06-25T00:56:40.149Z,55.70
2018-06-25T00:59:20.632Z,55.30
2018-06-25T01:01:49.837Z,55.30
2018-06-25T01:04:19.106Z,55.90
2018-06-25T01:06:48.389Z,55.50
2018-06-25T01:09:17.644Z,56.10
2018-06-25T01:11:46.929Z,55.50
2018-06-25T01:14:16.203Z,56.10
2018-06-25T01:16:45.513Z,55.70
2018-06-25T01:19:14.769Z,55.60
2018-06-25T01:21:43.994Z,55.90
2018-06-25T01:24:13.239Z,55.80
2018-06-25T01:26:42.545Z,56.40
2018-06-25T01:29:11.900Z,56.30
2018-06-25T01:31:41.139Z,56.40
2018-06-25T01:34:10.461Z,56.30
2018-06-25T01:36:40.043Z,55.80
2018-06-25T01:39:10.878Z,56.10
2018-06-25T01:41:40.106Z,56.50
2018-06-25T01:44:09.359Z,56.10
2018-06-25T01:46:38.739Z,56.10
2018-06-25T01:49:08.090Z,56.60
2018-06-25T01:51:37.643Z,56.60
2018-06-25T01:54:07.058Z,56.60
2018-06-25T01:56:36.399Z,56.10
2018-06-25T01:59:05.751Z,56.70
2018-06-25T02:01:34.992Z,57.30
2018-06-25T02:04:04.448Z,56.20
2018-06-25T02:06:33.764Z,55.70
2018-06-25T02:09:03.146Z,56.60
2018-06-25T02:11:32.415Z,56.60
2018-06-25T02:14:01.663Z,56.90
2018-06-25T02:16:31.002Z,56.60
2018-06-25T02:19:00.230Z,57.10
2018-06-25T02:21:29.767Z,56.50
2018-06-25T02:23:59.033Z,57.00
2018-06-25T02:26:28.307Z,57.00
2018-06-25T02:28:57.579Z,56.60
2018-06-25T02:31:27.111Z,57.10
2018-06-25T02:33:57.311Z,56.90
2018-06-25T02:36:26.580Z,56.40
2018-06-25T02:38:55.850Z,57.00
2018-06-25T02:41:25.075Z,56.40
2018-06-25T02:43:54.322Z,57.00
2018-06-25T02:46:23.613Z,56.50
2018-06-25T02:48:52.837Z,56.50
2018-06-25T02:51:22.099Z,57.00
2018-06-25T02:53:51.398Z,56.60
2018-06-25T02:56:20.654Z,57.10
2018-06-25T02:58:49.907Z,57.10
2018-06-25T03:01:19.165Z,56.50
2018-06-25T03:03:48.608Z,57.00
2018-06-25T03:06:18.135Z,56.40
2018-06-25T03:08:47.462Z,56.50
2018-06-25T03:11:16.740Z,57.60
2018-06-25T03:13:46.041Z,56.60
2018-06-25T03:16:15.321Z,56.60
2018-06-25T03:18:44.604Z,57.10
2018-06-25T03:21:13.867Z,57.10
2018-06-25T03:23:43.141Z,56.50
2018-06-25T03:26:12.389Z,57.00
2018-06-25T03:28:41.702Z,57.00
2018-06-25T03:31:10.949Z,57.20
2018-06-25T03:33:40.230Z,57.10
2018-06-25T03:36:09.447Z,57.20
2018-06-25T03:38:38.675Z,56.60
2018-06-25T03:41:08.089Z,57.20
2018-06-25T03:43:37.447Z,57.70
2018-06-25T03:46:06.702Z,57.20
2018-06-25T03:48:35.985Z,57.20
2018-06-25T03:51:05.279Z,56.60
2018-06-25T03:53:34.612Z,57.20
2018-06-25T03:56:03.829Z,57.20
2018-06-25T03:58:33.081Z,57.40
2018-06-25T04:01:02.502Z,56.60
2018-06-25T04:03:31.691Z,57.10
2018-06-25T04:06:01.313Z,57.10
2018-06-25T04:08:30.595Z,57.70
2018-06-25T04:10:59.894Z,58.20
2018-06-25T04:13:29.139Z,58.80
2018-06-25T04:15:58.433Z,59.00
2018-06-25T04:18:27.666Z,59.30
2018-06-25T04:20:56.926Z,58.80
2018-06-25T04:23:26.195Z,59.30
2018-06-25T04:25:55.502Z,58.90
2018-06-25T04:28:24.786Z,59.40
2018-06-25T04:30:54.109Z,58.70
2018-06-25T04:33:23.401Z,59.20
2018-06-25T04:35:52.657Z,58.90
2018-06-25T04:38:21.878Z,58.90
2018-06-25T04:40:51.294Z,58.30
2018-06-25T04:43:20.529Z,58.60
2018-06-25T04:45:49.810Z,58.60
2018-06-25T04:48:19.089Z,59.20
2018-06-25T04:53:17.171Z,58.50
2018-06-25T04:55:46.728Z,58.60
2018-06-25T04:58:16.023Z,58.60
2018-06-25T05:00:45.309Z,58.60
2018-06-25T05:03:14.567Z,59.10
2018-06-25T05:05:43.831Z,58.60
2018-06-25T05:08:13.143Z,58.50
2018-06-25T05:10:42.627Z,58.30
2018-06-25T05:13:11.894Z,58.30
2018-06-25T05:15:41.194Z,58.30
2018-06-25T05:18:10.444Z,58.20
2018-06-25T05:20:39.818Z,58.80
2018-06-25T05:23:09.059Z,58.10
2018-06-25T05:25:38.753Z,58.10
2018-06-25T05:33:06.274Z,57.90
2018-06-25T05:35:35.554Z,58.40
2018-06-25T05:38:04.925Z,57.90
2018-06-25T05:40:34.224Z,58.50
2018-06-25T05:43:03.469Z,57.90
2018-06-25T05:45:32.697Z,58.40
2018-06-25T05:48:02.036Z,57.80
2018-06-25T05:50:31.630Z,58.30
2018-06-25T05:53:00.884Z,58.30
2018-06-25T05:55:30.339Z,58.30
2018-06-25T05:57:59.584Z,58.30
2018-06-25T06:00:28.969Z,58.20
2018-06-25T06:02:58.301Z,57.60
2018-06-25T06:05:27.543Z,57.70
2018-06-25T06:07:56.840Z,57.70
2018-06-25T06:10:26.097Z,57.60
2018-06-25T06:12:55.443Z,58.10
2018-06-25T06:15:24.739Z,58.10
2018-06-25T06:17:54.054Z,58.00
2018-06-25T06:20:23.288Z,58.10
2018-06-25T06:22:52.558Z,58.00
2018-06-25T06:27:50.885Z,57.80
2018-06-25T06:30:20.122Z,58.30
2018-06-25T06:32:49.512Z,58.10
2018-06-25T06:37:47.566Z,57.70
2018-06-25T06:40:16.833Z,58.20
2018-06-25T06:42:46.063Z,58.00
2018-06-25T06:45:15.314Z,57.50
2018-06-25T06:47:44.741Z,58.00
2018-06-25T06:50:14.236Z,57.70
2018-06-25T06:52:43.602Z,57.80
2018-06-25T06:55:12.858Z,57.80
2018-06-25T06:57:42.144Z,57.70
2018-06-25T07:00:11.581Z,57.60
2018-06-25T07:02:40.861Z,57.70
2018-06-25T07:05:10.112Z,57.70
2018-06-25T07:07:39.371Z,57.70
2018-06-25T07:10:08.707Z,57.70
2018-06-25T07:12:38.038Z,57.20
2018-06-25T07:15:07.322Z,57.70
2018-06-25T07:17:36.582Z,57.60
2018-06-25T07:20:05.854Z,57.60
2018-06-25T07:22:35.109Z,57.50
2018-06-25T07:25:04.351Z,57.70
2018-06-25T07:27:33.679Z,57.70
2018-06-25T07:30:02.978Z,57.20
2018-06-25T07:32:32.495Z,57.70
2018-06-25T07:35:01.742Z,57.60
2018-06-25T07:37:30.994Z,57.40
2018-06-25T07:40:00.337Z,56.90
2018-06-25T07:42:29.624Z,57.50
2018-06-25T07:44:58.927Z,57.00
2018-06-25T07:47:28.250Z,56.80
2018-06-25T07:49:57.545Z,57.30
2018-06-25T07:52:26.831Z,56.90
2018-06-25T07:54:56.090Z,56.90
2018-06-25T07:57:25.369Z,57.00
2018-06-25T07:59:54.687Z,57.00
2018-06-25T08:02:24.071Z,56.80
2018-06-25T08:04:53.434Z,57.30
2018-06-25T08:07:22.746Z,56.90
2018-06-25T08:09:52.038Z,57.40
2018-06-25T08:12:21.306Z,56.70
2018-06-25T08:14:50.554Z,57.20
2018-06-25T08:17:19.861Z,56.80
2018-06-25T08:19:49.137Z,56.60
2018-06-25T08:22:18.473Z,56.90
2018-06-25T08:24:47.791Z,57.00
2018-06-25T08:27:17.068Z,57.50
2018-06-25T08:29:46.443Z,56.50
2018-06-25T08:32:15.650Z,56.30
2018-06-25T08:34:44.982Z,56.80
2018-06-25T08:37:14.227Z,56.70
2018-06-25T08:39:43.457Z,56.90
2018-06-25T08:42:12.781Z,56.60
2018-06-25T08:44:42.060Z,56.80
2018-06-25T08:47:11.347Z,57.20
2018-06-25T08:49:40.747Z,57.00
2018-06-25T08:52:10.036Z,57.50
2018-06-25T08:54:39.333Z,57.50
2018-06-25T08:57:08.666Z,57.30
2018-06-25T08:59:37.921Z,56.80
2018-06-25T09:02:07.236Z,57.30
2018-06-25T09:04:36.557Z,57.30
2018-06-25T09:07:05.791Z,57.00
2018-06-25T09:09:35.045Z,56.60
2018-06-25T09:12:04.279Z,57.10
2018-06-25T09:14:33.537Z,57.00
2018-06-25T09:17:02.782Z,56.80
2018-06-25T09:19:32.017Z,57.00
2018-06-25T09:22:01.307Z,57.20
2018-06-25T09:24:30.534Z,56.80
2018-06-25T09:26:59.794Z,56.90
2018-06-25T09:29:29.054Z,57.00
2018-06-25T09:31:58.332Z,57.20
2018-06-25T09:34:33.082Z,56.50
2018-06-25T09:37:02.318Z,56.40
2018-06-25T09:39:31.541Z,57.10
2018-06-25T09:42:00.969Z,57.20
2018-06-25T09:44:30.245Z,57.10
2018-06-25T09:46:59.598Z,56.60
2018-06-25T09:49:28.910Z,57.10
2018-06-25T09:51:58.177Z,57.00
2018-06-25T09:54:27.389Z,56.90
2018-06-25T09:56:56.766Z,56.60
2018-06-25T09:59:26.113Z,57.10
2018-06-25T10:04:24.408Z,56.50
2018-06-25T10:06:53.675Z,57.00
2018-06-25T10:09:22.909Z,57.10
2018-06-25T10:11:52.177Z,56.10
2018-06-25T10:14:21.443Z,56.20
2018-06-25T10:16:50.703Z,56.70
2018-06-25T10:19:19.935Z,56.50
2018-06-25T10:21:49.185Z,56.50
2018-06-25T10:24:18.486Z,56.50
2018-06-25T10:26:47.834Z,55.90
2018-06-25T10:29:17.163Z,56.40
2018-06-25T10:31:46.443Z,55.90
2018-06-25T10:34:15.712Z,56.50
2018-06-25T10:36:44.987Z,56.50
2018-06-25T10:39:14.477Z,56.50
2018-06-25T10:41:43.703Z,55.60
2018-06-25T10:44:12.950Z,55.60
2018-06-25T10:46:42.181Z,55.80
2018-06-25T10:49:11.456Z,56.30
2018-06-25T10:51:40.729Z,55.90
2018-06-25T10:54:09.965Z,55.80
2018-06-25T10:56:40.519Z,55.70
2018-06-25T10:59:09.773Z,55.80
2018-06-25T11:01:39.671Z,56.30
2018-06-25T11:04:09.074Z,56.30
2018-06-25T11:06:39.390Z,56.30
2018-06-25T11:09:10.691Z,55.80
2018-06-25T11:11:41.034Z,56.30
2018-06-25T11:14:10.269Z,56.00
2018-06-25T11:16:39.674Z,55.40
2018-06-25T11:19:09.125Z,55.20
2018-06-25T11:21:38.527Z,55.70
2018-06-25T11:24:07.857Z,55.80
2018-06-25T11:26:39.461Z,55.30
2018-06-25T11:29:08.899Z,55.40
2018-06-25T11:31:38.125Z,56.10
2018-06-25T11:34:07.442Z,56.00
2018-06-25T11:36:36.721Z,56.00
2018-06-25T11:39:08.437Z,55.90
2018-06-25T11:41:37.741Z,55.80
2018-06-25T11:44:07.182Z,55.30
2018-06-25T11:46:36.517Z,55.30
2018-06-25T11:49:06.083Z,55.40
2018-06-25T11:51:35.469Z,55.50
2018-06-25T11:54:04.735Z,56.00
2018-06-25T11:56:34.011Z,55.30
2018-06-25T11:59:04.083Z,55.80
2018-06-25T12:01:33.479Z,55.30
2018-06-25T12:04:02.821Z,55.80
2018-06-25T12:06:32.103Z,55.40
2018-06-25T12:09:01.374Z,55.90
2018-06-25T12:11:30.656Z,55.80
2018-06-25T12:14:00.040Z,55.20
2018-06-25T12:16:29.308Z,55.30
2018-06-25T12:18:58.562Z,55.90
2018-06-25T12:21:28.003Z,55.80
2018-06-25T12:23:57.294Z,55.10
2018-06-25T12:26:26.562Z,55.60
2018-06-25T12:28:55.829Z,55.60
2018-06-25T12:31:25.061Z,55.50
2018-06-25T12:33:54.308Z,55.90
2018-06-25T12:36:23.727Z,55.30
2018-06-25T12:38:52.971Z,55.50
2018-06-25T12:41:22.300Z,55.40
2018-06-25T12:43:51.614Z,55.50
2018-06-25T12:46:20.879Z,55.60
2018-06-25T12:48:50.121Z,55.30
2018-06-25T12:51:19.382Z,55.00
2018-06-25T12:53:48.813Z,55.00
2018-06-25T12:56:18.109Z,55.50
2018-06-25T12:58:47.461Z,55.40
2018-06-25T13:01:16.735Z,54.90
2018-06-25T13:03:46.154Z,55.00
2018-06-25T13:06:15.489Z,55.10
2018-06-25T13:08:44.860Z,54.90
2018-06-25T13:11:14.230Z,55.50
2018-06-25T13:13:43.472Z,55.40
2018-06-25T13:16:12.690Z,55.50
2018-06-25T13:18:41.978Z,55.50
2018-06-25T13:21:11.209Z,54.90
2018-06-25T13:23:40.459Z,54.90
2018-06-25T13:26:09.714Z,55.40
2018-06-25T13:28:38.985Z,54.90
2018-06-25T13:31:08.412Z,54.90
2018-06-25T13:33:37.532Z,55.40
2018-06-25T13:36:07.018Z,54.90
2018-06-25T13:38:36.250Z,54.80
2018-06-25T13:41:05.506Z,54.90
2018-06-25T13:43:34.750Z,54.80
2018-06-25T13:46:04.031Z,54.80
2018-06-25T13:48:33.282Z,54.70
2018-06-25T13:51:02.509Z,54.70
2018-06-25T13:53:31.755Z,54.70
2018-06-25T13:56:01.770Z,55.20
2018-06-25T13:58:31.018Z,54.50
2018-06-25T14:01:00.270Z,54.60
2018-06-25T14:03:29.534Z,54.70
2018-06-25T14:05:58.818Z,54.70
2018-06-25T14:08:28.689Z,54.40
2018-06-25T14:10:57.922Z,54.50
2018-06-25T14:13:27.185Z,54.50
2018-06-25T14:15:56.450Z,55.00
2018-06-25T14:18:25.707Z,55.00
2018-06-25T14:20:54.987Z,54.30
2018-06-25T14:23:24.310Z,54.90
2018-06-25T14:25:58.898Z,54.20
2018-06-25T14:28:33.216Z,54.70
2018-06-25T14:31:07.907Z,53.20
2018-06-25T14:33:42.515Z,53.60
2018-06-25T14:36:11.921Z,53.40
2018-06-25T14:38:41.198Z,53.50
2018-06-25T14:41:10.513Z,54.10
2018-06-25T14:43:39.819Z,53.70
2018-06-25T14:46:09.066Z,54.30
2018-06-25T14:48:38.422Z,53.80
2018-06-25T14:51:07.690Z,53.70
2018-06-25T14:53:36.916Z,53.70
2018-06-25T14:56:06.198Z,53.60
2018-06-25T14:58:35.422Z,53.70
2018-06-25T15:01:04.663Z,54.20
2018-06-25T15:06:02.960Z,52.80
2018-06-25T15:08:32.166Z,53.40
2018-06-25T15:11:01.418Z,53.40
2018-06-25T15:13:30.900Z,53.00
2018-06-25T15:16:00.146Z,53.50
2018-06-25T15:18:29.457Z,53.00
2018-06-25T15:20:58.770Z,52.90
2018-06-25T15:23:28.042Z,52.90
2018-06-25T15:25:57.386Z,52.80
2018-06-25T15:28:26.698Z,52.90
2018-06-25T15:30:55.949Z,53.40
2018-06-25T15:33:25.281Z,53.40
2018-06-25T15:35:54.529Z,53.00
2018-06-25T15:40:52.710Z,52.90
2018-06-25T15:43:22.133Z,53.50
2018-06-25T15:45:51.347Z,52.70
2018-06-25T15:50:49.394Z,52.70
2018-06-25T15:55:47.504Z,52.70
2018-06-25T15:58:16.809Z,52.80
2018-06-25T16:00:46.095Z,52.70
2018-06-25T16:03:15.388Z,52.60
2018-06-25T16:05:44.635Z,53.20
2018-06-25T16:08:13.885Z,53.10
2018-06-25T16:10:43.146Z,52.70
2018-06-25T16:13:12.458Z,52.80
2018-06-25T16:15:41.817Z,53.30
2018-06-25T16:18:11.115Z,52.80
2018-06-25T16:20:40.396Z,53.40
2018-06-25T16:23:10.496Z,52.80
2018-06-25T16:25:39.710Z,53.30
2018-06-25T16:28:08.993Z,53.60
2018-06-25T16:30:38.260Z,53.50
2018-06-25T16:33:07.645Z,53.50
2018-06-25T16:35:36.922Z,53.00
2018-06-25T16:38:06.230Z,54.10
2018-06-25T16:40:35.530Z,53.40
2018-06-25T16:43:04.985Z,53.40
2018-06-25T16:45:34.260Z,53.40
2018-06-25T16:48:03.705Z,53.30
2018-06-25T16:50:32.973Z,53.30
2018-06-25T16:53:02.249Z,52.80
2018-06-25T16:55:31.507Z,53.40
2018-06-25T16:58:00.988Z,53.90
2018-06-25T17:00:30.473Z,53.20
2018-06-25T17:03:01.054Z,52.70
2018-06-25T17:05:30.813Z,52.90
2018-06-25T17:08:00.291Z,53.40
2018-06-25T17:10:30.361Z,53.40
2018-06-25T17:12:59.679Z,53.40
2018-06-25T17:15:28.934Z,52.90
2018-06-25T17:17:59.254Z,53.40
2018-06-25T17:20:28.612Z,53.40
2018-06-25T17:22:57.913Z,52.80
2018-06-25T17:25:27.199Z,53.30
2018-06-25T17:27:56.447Z,53.30
2018-06-25T17:30:25.753Z,53.30
2018-06-25T17:32:55.002Z,52.80
2018-06-25T17:35:24.277Z,53.30
2018-06-25T17:37:53.539Z,53.30
2018-06-25T17:40:22.768Z,53.40
2018-06-25T17:42:52.110Z,53.30
2018-06-25T17:45:21.431Z,53.30
2018-06-25T17:47:50.677Z,52.70
2018-06-25T17:50:19.998Z,52.60
2018-06-25T17:52:49.225Z,52.60
2018-06-25T17:55:18.533Z,53.10
2018-06-25T17:57:47.775Z,53.00
2018-06-25T18:00:17.007Z,53.00
2018-06-25T18:02:46.373Z,52.40
2018-06-25T18:05:15.690Z,52.90
2018-06-25T18:07:44.966Z,52.90
2018-06-25T18:10:14.220Z,52.90
2018-06-25T18:12:43.552Z,52.50
2018-06-25T18:15:12.856Z,53.00
2018-06-25T18:17:42.110Z,52.50
2018-06-25T18:20:11.351Z,52.50
2018-06-25T18:25:09.422Z,53.00
2018-06-25T18:30:07.961Z,52.80
2018-06-25T18:32:37.209Z,52.80
2018-06-25T18:35:06.462Z,53.30
2018-06-25T18:37:35.722Z,52.70
2018-06-25T18:40:05.583Z,53.10
2018-06-25T18:42:34.914Z,53.00
2018-06-25T18:45:04.240Z,52.10
2018-06-25T18:47:33.473Z,52.60
2018-06-25T18:50:02.726Z,52.50
2018-06-25T18:52:32.062Z,52.20
2018-06-25T18:55:01.434Z,52.00
2018-06-25T18:57:30.703Z,51.90
2018-06-25T18:59:59.972Z,52.30
2018-06-25T19:02:29.359Z,51.40
2018-06-25T19:04:58.586Z,51.90
2018-06-25T19:07:27.857Z,51.10
2018-06-25T19:09:57.126Z,51.10
2018-06-25T19:12:26.362Z,50.90
2018-06-25T19:14:55.625Z,51.50
2018-06-25T19:17:24.876Z,51.00
2018-06-25T19:19:54.286Z,51.30
2018-06-25T19:22:23.539Z,51.40
2018-06-25T19:24:53.034Z,51.00
2018-06-25T19:27:23.159Z,51.50
2018-06-25T19:29:52.402Z,51.50
2018-06-25T19:32:21.791Z,51.50
2018-06-25T19:34:51.036Z,51.10
2018-06-25T19:37:20.535Z,51.60
2018-06-25T19:39:49.767Z,51.70
2018-06-25T19:42:19.246Z,51.70
2018-06-25T19:44:48.663Z,51.70
2018-06-25T19:47:17.904Z,51.70
2018-06-25T19:49:47.331Z,51.60
2018-06-25T19:52:16.596Z,51.20
2018-06-25T19:54:45.893Z,51.80
2018-06-25T19:57:15.151Z,51.80
2018-06-25T19:59:44.413Z,51.20
2018-06-25T20:02:13.786Z,51.70
2018-06-25T20:04:43.009Z,51.60
2018-06-25T20:07:12.645Z,52.20
2018-06-25T20:09:41.944Z,52.30
2018-06-25T20:12:11.232Z,53.10
2018-06-25T20:14:43.095Z,52.70
2018-06-25T20:17:12.278Z,52.80
2018-06-25T20:19:41.585Z,53.00
2018-06-25T20:22:11.384Z,53.00
2018-06-25T20:24:40.831Z,52.70
2018-06-25T20:27:10.166Z,52.70
2018-06-25T20:29:39.436Z,53.00
2018-06-25T20:32:09.136Z,52.70
2018-06-25T20:34:38.450Z,53.30
2018-06-25T20:37:07.706Z,53.30
2018-06-25T20:39:37.072Z,52.90
2018-06-25T20:42:06.331Z,53.10
2018-06-25T20:44:35.577Z,54.20
2018-06-25T20:47:04.912Z,53.50
2018-06-25T20:49:34.281Z,52.90
2018-06-25T20:52:04.314Z,53.20
2018-06-25T20:54:33.626Z,53.70
2018-06-25T20:57:03.571Z,53.20
2018-06-25T20:59:32.865Z,53.70
2018-06-25T21:02:02.262Z,53.60
2018-06-25T21:04:31.539Z,53.30
2018-06-25T21:07:00.847Z,53.80
2018-06-25T21:09:30.181Z,53.80
2018-06-25T21:11:59.425Z,53.30
2018-06-25T21:14:28.694Z,53.80
2018-06-25T21:16:58.010Z,53.30
2018-06-25T21:19:27.239Z,53.40
2018-06-25T21:21:56.658Z,53.40
2018-06-25T21:24:25.947Z,53.90
2018-06-25T21:26:55.231Z,53.20
2018-06-25T21:29:24.469Z,53.20
2018-06-25T21:31:53.778Z,53.30
2018-06-25T21:34:23.158Z,53.80
2018-06-25T21:36:52.413Z,53.80
2018-06-25T21:39:21.698Z,53.30
2018-06-25T21:41:51.616Z,53.80
2018-06-25T21:44:20.905Z,53.30
2018-06-25T21:46:50.191Z,53.80
2018-06-25T21:49:19.422Z,52.80
2018-06-25T21:51:48.768Z,53.40
2018-06-25T21:54:18.010Z,53.60
2018-06-25T21:56:47.329Z,53.70
2018-06-25T21:59:16.779Z,53.50
2018-06-25T22:01:50.794Z,54.70
2018-06-25T22:04:20.250Z,53.90
2018-06-25T22:06:49.725Z,54.40
2018-06-25T22:09:19.034Z,54.50
2018-06-25T22:11:49.194Z,54.50
2018-06-25T22:14:18.642Z,54.70
2018-06-25T22:16:48.053Z,55.20
2018-06-25T22:19:17.330Z,55.10
2018-06-25T22:21:46.578Z,55.70
2018-06-25T22:24:16.008Z,55.50
2018-06-25T22:26:45.252Z,55.30
2018-06-25T22:29:14.792Z,55.80
2018-06-25T22:31:44.047Z,55.60
2018-06-25T22:34:13.355Z,56.10
2018-06-25T22:36:42.627Z,55.70
2018-06-25T22:39:12.782Z,56.20
2018-06-25T22:41:42.370Z,56.00
2018-06-25T22:44:13.654Z,56.50
2018-06-25T22:46:43.862Z,56.40
2018-06-25T22:49:13.150Z,56.20
2018-06-25T22:51:42.451Z,56.60
2018-06-25T22:54:11.753Z,56.40
2018-06-25T22:56:41.010Z,56.30
2018-06-25T22:59:10.330Z,56.70
2018-06-25T23:01:39.637Z,56.10
2018-06-25T23:04:08.914Z,56.60
2018-06-25T23:06:38.170Z,56.80
2018-06-25T23:09:09.308Z,57.00
2018-06-25T23:11:38.533Z,56.90
2018-06-25T23:14:07.900Z,56.90
2018-06-25T23:16:37.279Z,57.00
2018-06-25T23:19:06.615Z,56.60
2018-06-25T23:21:35.954Z,56.60
2018-06-25T23:24:05.226Z,57.10
2018-06-25T23:26:34.524Z,57.00
2018-06-25T23:29:04.154Z,56.70
2018-06-25T23:31:33.419Z,56.40
2018-06-25T23:34:02.726Z,56.40
2018-06-25T23:36:32.003Z,56.80
2018-06-25T23:39:01.367Z,56.30
2018-06-25T23:41:30.595Z,56.40
2018-06-25T23:43:59.830Z,57.00
2018-06-25T23:46:29.188Z,56.80
2018-06-25T23:48:58.414Z,56.40
2018-06-25T23:51:27.680Z,56.40
2018-06-25T23:53:57.087Z,56.90
2018-06-25T23:56:26.333Z,56.50
2018-06-25T23:58:55.578Z,56.50
